Terminal Aerodrome Forecast
Issued by NWS

Current Version | Previous Version | Text Only | Print | Product List | Glossary Off
Versions: 1 2 3 4 5 6 7 8 9 10 11 12 13 14 15 16 17 18 19 20 21 22 23 24 25 26 27 28 29 30 31 32 33 34 35 36 37 38 39 40 41 42 43 44 45 46 47 48 49 50

000
FTUS41 KRNK 050541
TAFLWB
TAF
KLWB 050541Z 0506/0606 00000KT P6SM VCSH OVC045
     FM050900 31003KT 3SM -SHRA BR OVC013
      TEMPO 0510/0512 1SM SHRA BR OVC009
     FM051800 30006KT 3SM SHRA BR OVC015
     FM060000 32005KT 5SM -SHRA BR OVC007=

USA.gov is the U.S. government's official web portal to all federal, state and local government web resources and services.